sensor_id;sensor_type;location;lat;lon;timestamp;temperature;humidity
20066;DHT22;10193;48.884;9.182;2024-01-07T00:01:08;7.80;76.00
20066;DHT22;10193;48.884;9.182;2024-01-07T00:03:36;7.80;76.00
20066;DHT22;10193;48.884;9.182;2024-01-07T00:06:03;7.80;76.00
20066;DHT22;10193;48.884;9.182;2024-01-07T00:08:30;7.90;76.20
20066;DHT22;10193;48.884;9.182;2024-01-07T00:10:57;7.80;76.20
20066;DHT22;10193;48.884;9.182;2024-01-07T00:13:23;7.80;76.10
20066;DHT22;10193;48.884;9.182;2024-01-07T00:15:50;7.80;76.20
20066;DHT22;10193;48.884;9.182;2024-01-07T00:18:19;7.80;76.10
20066;DHT22;10193;48.884;9.182;2024-01-07T00:20:47;7.80;76.20
20066;DHT22;10193;48.884;9.182;2024-01-07T00:23:13;7.80;76.20
20066;DHT22;10193;48.884;9.182;2024-01-07T00:25:40;7.80;76.00
20066;DHT22;10193;48.884;9.182;2024-01-07T00:28:07;7.90;76.00
20066;DHT22;10193;48.884;9.182;2024-01-07T00:30:33;7.80;76.10
20066;DHT22;10193;48.884;9.182;2024-01-07T00:33:00;7.80;76.00
20066;DHT22;10193;48.884;9.182;2024-01-07T00:35:27;7.80;75.90
20066;DHT22;10193;48.884;9.182;2024-01-07T00:37:55;7.80;76.00
20066;DHT22;10193;48.884;9.182;2024-01-07T00:40:22;7.80;76.00
20066;DHT22;10193;48.884;9.182;2024-01-07T00:42:49;7.80;76.10
20066;DHT22;10193;48.884;9.182;2024-01-07T00:45:16;7.80;76.10
20066;DHT22;10193;48.884;9.182;2024-01-07T00:47:43;7.80;76.10
20066;DHT22;10193;48.884;9.182;2024-01-07T00:50:10;7.80;76.20
20066;DHT22;10193;48.884;9.182;2024-01-07T00:52:36;7.80;76.20
20066;DHT22;10193;48.884;9.182;2024-01-07T00:55:05;7.80;76.20
20066;DHT22;10193;48.884;9.182;2024-01-07T00:57:32;7.80;76.30
20066;DHT22;10193;48.884;9.182;2024-01-07T01:00:01;7.80;76.30
20066;DHT22;10193;48.884;9.182;2024-01-07T01:02:31;7.80;76.40
20066;DHT22;10193;48.884;9.182;2024-01-07T01:04:57;7.90;76.40
20066;DHT22;10193;48.884;9.182;2024-01-07T01:07:24;7.90;76.40
20066;DHT22;10193;48.884;9.182;2024-01-07T01:09:51;7.90;76.30
20066;DHT22;10193;48.884;9.182;2024-01-07T01:12:19;7.90;76.40
20066;DHT22;10193;48.884;9.182;2024-01-07T01:14:45;7.80;76.20
20066;DHT22;10193;48.884;9.182;2024-01-07T01:17:12;7.80;76.20
20066;DHT22;10193;48.884;9.182;2024-01-07T01:19:39;7.80;76.30
20066;DHT22;10193;48.884;9.182;2024-01-07T01:22:05;7.80;76.20
20066;DHT22;10193;48.884;9.182;2024-01-07T01:24:32;7.80;76.30
20066;DHT22;10193;48.884;9.182;2024-01-07T01:26:59;7.80;76.30
20066;DHT22;10193;48.884;9.182;2024-01-07T01:29:27;7.80;76.30
20066;DHT22;10193;48.884;9.182;2024-01-07T01:31:54;7.80;76.40
20066;DHT22;10193;48.884;9.182;2024-01-07T01:34:20;7.90;76.60
20066;DHT22;10193;48.884;9.182;2024-01-07T01:36:47;7.80;76.50
20066;DHT22;10193;48.884;9.182;2024-01-07T01:39:14;7.80;76.40
20066;DHT22;10193;48.884;9.182;2024-01-07T01:41:40;7.80;76.30
20066;DHT22;10193;48.884;9.182;2024-01-07T01:44:08;7.80;76.30
20066;DHT22;10193;48.884;9.182;2024-01-07T01:46:36;7.80;76.40
20066;DHT22;10193;48.884;9.182;2024-01-07T01:49:03;7.80;77.20
20066;DHT22;10193;48.884;9.182;2024-01-07T01:51:30;7.80;76.40
20066;DHT22;10193;48.884;9.182;2024-01-07T01:53:58;7.80;76.40
20066;DHT22;10193;48.884;9.182;2024-01-07T01:56:27;7.80;76.50
20066;DHT22;10193;48.884;9.182;2024-01-07T01:58:54;7.80;76.50
20066;DHT22;10193;48.884;9.182;2024-01-07T02:01:21;7.80;76.50
20066;DHT22;10193;48.884;9.182;2024-01-07T02:03:50;7.80;76.60
20066;DHT22;10193;48.884;9.182;2024-01-07T02:06:18;7.80;76.50
20066;DHT22;10193;48.884;9.182;2024-01-07T02:08:45;7.80;76.50
20066;DHT22;10193;48.884;9.182;2024-01-07T02:11:16;7.80;76.70
20066;DHT22;10193;48.884;9.182;2024-01-07T02:13:42;7.80;76.70
20066;DHT22;10193;48.884;9.182;2024-01-07T02:16:09;7.80;76.60
20066;DHT22;10193;48.884;9.182;2024-01-07T02:18:37;7.80;76.70
20066;DHT22;10193;48.884;9.182;2024-01-07T02:21:06;7.80;76.60
20066;DHT22;10193;48.884;9.182;2024-01-07T02:23:33;7.80;76.60
20066;DHT22;10193;48.884;9.182;2024-01-07T02:26:01;7.80;76.60
20066;DHT22;10193;48.884;9.182;2024-01-07T02:28:28;7.80;76.60
20066;DHT22;10193;48.884;9.182;2024-01-07T02:30:55;7.80;76.60
20066;DHT22;10193;48.884;9.182;2024-01-07T02:33:21;7.80;76.70
20066;DHT22;10193;48.884;9.182;2024-01-07T02:35:48;7.80;76.70
20066;DHT22;10193;48.884;9.182;2024-01-07T02:38:15;7.80;76.70
20066;DHT22;10193;48.884;9.182;2024-01-07T02:40:42;7.80;76.70
20066;DHT22;10193;48.884;9.182;2024-01-07T02:43:10;7.80;76.60
20066;DHT22;10193;48.884;9.182;2024-01-07T02:45:36;7.80;76.60
20066;DHT22;10193;48.884;9.182;2024-01-07T02:48:03;7.80;76.60
20066;DHT22;10193;48.884;9.182;2024-01-07T02:50:31;7.70;76.50
20066;DHT22;10193;48.884;9.182;2024-01-07T02:52:57;7.70;76.60
20066;DHT22;10193;48.884;9.182;2024-01-07T02:55:24;7.80;76.60
20066;DHT22;10193;48.884;9.182;2024-01-07T02:57:50;7.70;76.50
20066;DHT22;10193;48.884;9.182;2024-01-07T03:00:19;7.70;76.50
20066;DHT22;10193;48.884;9.182;2024-01-07T03:02:45;7.70;76.30
20066;DHT22;10193;48.884;9.182;2024-01-07T03:05:12;7.70;76.30
20066;DHT22;10193;48.884;9.182;2024-01-07T03:07:39;7.70;76.30
20066;DHT22;10193;48.884;9.182;2024-01-07T03:10:06;7.70;76.30
20066;DHT22;10193;48.884;9.182;2024-01-07T03:12:33;7.70;76.50
20066;DHT22;10193;48.884;9.182;2024-01-07T03:15:00;7.70;76.50
20066;DHT22;10193;48.884;9.182;2024-01-07T03:17:28;7.60;76.50
20066;DHT22;10193;48.884;9.182;2024-01-07T03:19:54;7.60;76.50
20066;DHT22;10193;48.884;9.182;2024-01-07T03:22:21;7.60;76.50
20066;DHT22;10193;48.884;9.182;2024-01-07T03:24:48;7.60;76.50
20066;DHT22;10193;48.884;9.182;2024-01-07T03:27:14;7.60;76.50
20066;DHT22;10193;48.884;9.182;2024-01-07T03:29:41;7.60;76.50
20066;DHT22;10193;48.884;9.182;2024-01-07T03:32:08;7.60;76.60
20066;DHT22;10193;48.884;9.182;2024-01-07T03:34:36;7.60;76.50
20066;DHT22;10193;48.884;9.182;2024-01-07T03:37:02;7.60;76.50
20066;DHT22;10193;48.884;9.182;2024-01-07T03:39:32;7.60;76.60
20066;DHT22;10193;48.884;9.182;2024-01-07T03:41:58;7.50;76.60
20066;DHT22;10193;48.884;9.182;2024-01-07T03:44:25;7.50;77.30
20066;DHT22;10193;48.884;9.182;2024-01-07T03:46:52;7.50;76.40
20066;DHT22;10193;48.884;9.182;2024-01-07T03:49:18;7.50;76.50
20066;DHT22;10193;48.884;9.182;2024-01-07T03:51:46;7.50;76.40
20066;DHT22;10193;48.884;9.182;2024-01-07T03:54:13;7.50;76.30
20066;DHT22;10193;48.884;9.182;2024-01-07T03:56:40;7.50;76.30
20066;DHT22;10193;48.884;9.182;2024-01-07T03:59:06;7.50;76.20
20066;DHT22;10193;48.884;9.182;2024-01-07T04:01:33;7.50;76.30
20066;DHT22;10193;48.884;9.182;2024-01-07T04:04:00;7.50;76.30
20066;DHT22;10193;48.884;9.182;2024-01-07T04:06:27;7.40;76.20
20066;DHT22;10193;48.884;9.182;2024-01-07T04:08:55;7.40;76.30
20066;DHT22;10193;48.884;9.182;2024-01-07T04:11:21;7.40;76.20
20066;DHT22;10193;48.884;9.182;2024-01-07T04:13:48;7.40;76.30
20066;DHT22;10193;48.884;9.182;2024-01-07T04:16:18;7.40;76.20
20066;DHT22;10193;48.884;9.182;2024-01-07T04:18:45;7.30;76.10
20066;DHT22;10193;48.884;9.182;2024-01-07T04:21:12;7.30;76.10
20066;DHT22;10193;48.884;9.182;2024-01-07T04:23:39;7.30;76.10
20066;DHT22;10193;48.884;9.182;2024-01-07T04:26:07;7.30;76.30
20066;DHT22;10193;48.884;9.182;2024-01-07T04:28:34;7.30;76.20
20066;DHT22;10193;48.884;9.182;2024-01-07T04:31:00;7.30;76.20
20066;DHT22;10193;48.884;9.182;2024-01-07T04:33:27;7.30;76.30
20066;DHT22;10193;48.884;9.182;2024-01-07T04:35:54;7.30;76.40
20066;DHT22;10193;48.884;9.182;2024-01-07T04:38:23;7.30;76.50
20066;DHT22;10193;48.884;9.182;2024-01-07T04:40:50;7.30;76.50
20066;DHT22;10193;48.884;9.182;2024-01-07T04:43:18;7.20;76.20
20066;DHT22;10193;48.884;9.182;2024-01-07T04:45:45;7.30;76.40
20066;DHT22;10193;48.884;9.182;2024-01-07T04:48:12;7.20;76.30
20066;DHT22;10193;48.884;9.182;2024-01-07T04:50:39;7.20;76.50
20066;DHT22;10193;48.884;9.182;2024-01-07T04:53:07;7.20;76.30
20066;DHT22;10193;48.884;9.182;2024-01-07T04:55:34;7.20;76.30
20066;DHT22;10193;48.884;9.182;2024-01-07T04:58:00;7.20;76.30
20066;DHT22;10193;48.884;9.182;2024-01-07T05:00:30;7.20;76.40
20066;DHT22;10193;48.884;9.182;2024-01-07T05:02:57;7.20;76.30
20066;DHT22;10193;48.884;9.182;2024-01-07T05:05:24;7.20;76.30
20066;DHT22;10193;48.884;9.182;2024-01-07T05:07:50;7.20;76.30
20066;DHT22;10193;48.884;9.182;2024-01-07T05:10:16;7.20;76.30
20066;DHT22;10193;48.884;9.182;2024-01-07T05:12:43;7.20;76.30
20066;DHT22;10193;48.884;9.182;2024-01-07T05:15:09;7.20;76.20
20066;DHT22;10193;48.884;9.182;2024-01-07T05:17:37;7.10;76.10
20066;DHT22;10193;48.884;9.182;2024-01-07T05:20:05;7.20;76.30
20066;DHT22;10193;48.884;9.182;2024-01-07T05:22:32;7.10;76.30
20066;DHT22;10193;48.884;9.182;2024-01-07T05:25:00;7.10;77.10
20066;DHT22;10193;48.884;9.182;2024-01-07T05:27:26;7.10;76.40
20066;DHT22;10193;48.884;9.182;2024-01-07T05:29:53;7.10;76.50
20066;DHT22;10193;48.884;9.182;2024-01-07T05:32:20;7.10;76.40
20066;DHT22;10193;48.884;9.182;2024-01-07T05:34:49;7.10;76.50
20066;DHT22;10193;48.884;9.182;2024-01-07T05:37:15;7.10;76.40
20066;DHT22;10193;48.884;9.182;2024-01-07T05:39:42;7.10;76.50
20066;DHT22;10193;48.884;9.182;2024-01-07T05:42:09;7.10;76.50
20066;DHT22;10193;48.884;9.182;2024-01-07T05:44:36;7.10;76.50
20066;DHT22;10193;48.884;9.182;2024-01-07T05:47:03;7.00;77.20
20066;DHT22;10193;48.884;9.182;2024-01-07T05:49:29;7.10;76.60
20066;DHT22;10193;48.884;9.182;2024-01-07T05:51:57;7.00;76.50
20066;DHT22;10193;48.884;9.182;2024-01-07T05:54:24;7.10;76.70
20066;DHT22;10193;48.884;9.182;2024-01-07T05:56:51;7.00;76.60
20066;DHT22;10193;48.884;9.182;2024-01-07T05:59:18;7.00;76.50
20066;DHT22;10193;48.884;9.182;2024-01-07T06:01:45;7.00;76.60
20066;DHT22;10193;48.884;9.182;2024-01-07T06:04:12;7.00;76.50
20066;DHT22;10193;48.884;9.182;2024-01-07T06:06:38;7.00;76.60
20066;DHT22;10193;48.884;9.182;2024-01-07T06:09:06;7.00;77.30
20066;DHT22;10193;48.884;9.182;2024-01-07T06:11:33;7.00;76.50
20066;DHT22;10193;48.884;9.182;2024-01-07T06:14:00;7.00;76.60
20066;DHT22;10193;48.884;9.182;2024-01-07T06:16:26;7.00;76.50
20066;DHT22;10193;48.884;9.182;2024-01-07T06:18:53;7.00;76.50
20066;DHT22;10193;48.884;9.182;2024-01-07T06:21:20;7.00;76.60
20066;DHT22;10193;48.884;9.182;2024-01-07T06:23:46;7.00;76.50
20066;DHT22;10193;48.884;9.182;2024-01-07T06:26:15;7.00;77.30
20066;DHT22;10193;48.884;9.182;2024-01-07T06:28:41;7.00;76.50
20066;DHT22;10193;48.884;9.182;2024-01-07T06:31:08;7.00;76.50
20066;DHT22;10193;48.884;9.182;2024-01-07T06:33:34;7.00;76.30
20066;DHT22;10193;48.884;9.182;2024-01-07T06:36:01;7.00;76.30
20066;DHT22;10193;48.884;9.182;2024-01-07T06:38:28;7.00;76.20
20066;DHT22;10193;48.884;9.182;2024-01-07T06:40:55;7.00;76.10
20066;DHT22;10193;48.884;9.182;2024-01-07T06:43:27;7.00;76.10
20066;DHT22;10193;48.884;9.182;2024-01-07T06:45:54;7.00;76.10
20066;DHT22;10193;48.884;9.182;2024-01-07T06:48:21;7.00;76.00
20066;DHT22;10193;48.884;9.182;2024-01-07T06:50:47;7.00;76.00
20066;DHT22;10193;48.884;9.182;2024-01-07T06:53:14;7.00;76.00
20066;DHT22;10193;48.884;9.182;2024-01-07T06:55:42;7.00;75.90
20066;DHT22;10193;48.884;9.182;2024-01-07T06:58:08;7.00;75.90
20066;DHT22;10193;48.884;9.182;2024-01-07T07:00:36;7.00;75.90
20066;DHT22;10193;48.884;9.182;2024-01-07T07:03:03;7.00;75.70
20066;DHT22;10193;48.884;9.182;2024-01-07T07:05:30;7.00;75.60
20066;DHT22;10193;48.884;9.182;2024-01-07T07:07:57;7.00;75.40
20066;DHT22;10193;48.884;9.182;2024-01-07T07:10:23;7.00;75.10
20066;DHT22;10193;48.884;9.182;2024-01-07T07:12:51;7.00;75.00
20066;DHT22;10193;48.884;9.182;2024-01-07T07:15:17;7.00;74.90
20066;DHT22;10193;48.884;9.182;2024-01-07T07:17:45;6.90;74.70
20066;DHT22;10193;48.884;9.182;2024-01-07T07:20:12;6.90;75.40
20066;DHT22;10193;48.884;9.182;2024-01-07T07:22:39;6.90;74.60
20066;DHT22;10193;48.884;9.182;2024-01-07T07:25:06;6.90;74.50
20066;DHT22;10193;48.884;9.182;2024-01-07T07:27:33;6.80;74.40
20066;DHT22;10193;48.884;9.182;2024-01-07T07:30:00;6.80;74.30
20066;DHT22;10193;48.884;9.182;2024-01-07T07:32:26;6.80;74.30
20066;DHT22;10193;48.884;9.182;2024-01-07T07:34:54;6.80;74.20
20066;DHT22;10193;48.884;9.182;2024-01-07T07:37:21;6.80;74.10
20066;DHT22;10193;48.884;9.182;2024-01-07T07:39:47;6.80;74.20
20066;DHT22;10193;48.884;9.182;2024-01-07T07:42:14;6.80;74.20
20066;DHT22;10193;48.884;9.182;2024-01-07T07:44:41;6.80;74.20
20066;DHT22;10193;48.884;9.182;2024-01-07T07:47:08;6.70;74.10
20066;DHT22;10193;48.884;9.182;2024-01-07T07:49:37;6.70;74.00
20066;DHT22;10193;48.884;9.182;2024-01-07T07:52:07;6.70;74.00
20066;DHT22;10193;48.884;9.182;2024-01-07T07:54:34;6.70;74.10
20066;DHT22;10193;48.884;9.182;2024-01-07T07:57:00;6.70;74.00
20066;DHT22;10193;48.884;9.182;2024-01-07T07:59:27;6.70;74.00
20066;DHT22;10193;48.884;9.182;2024-01-07T08:01:54;6.70;73.90
20066;DHT22;10193;48.884;9.182;2024-01-07T08:04:21;6.70;73.90
20066;DHT22;10193;48.884;9.182;2024-01-07T08:06:48;6.70;73.90
20066;DHT22;10193;48.884;9.182;2024-01-07T08:09:16;6.70;73.70
20066;DHT22;10193;48.884;9.182;2024-01-07T08:11:42;6.70;73.70
20066;DHT22;10193;48.884;9.182;2024-01-07T08:14:09;6.70;74.50
20066;DHT22;10193;48.884;9.182;2024-01-07T08:16:36;6.70;73.50
20066;DHT22;10193;48.884;9.182;2024-01-07T08:19:03;6.70;73.50
20066;DHT22;10193;48.884;9.182;2024-01-07T08:21:29;6.70;73.30
20066;DHT22;10193;48.884;9.182;2024-01-07T08:23:56;6.70;73.30
20066;DHT22;10193;48.884;9.182;2024-01-07T08:26:24;6.70;73.50
20066;DHT22;10193;48.884;9.182;2024-01-07T08:28:51;6.70;73.20
20066;DHT22;10193;48.884;9.182;2024-01-07T08:31:17;6.60;73.20
20066;DHT22;10193;48.884;9.182;2024-01-07T08:33:44;6.60;72.90
20066;DHT22;10193;48.884;9.182;2024-01-07T08:36:11;6.60;72.90
20066;DHT22;10193;48.884;9.182;2024-01-07T08:38:38;6.60;72.90
20066;DHT22;10193;48.884;9.182;2024-01-07T08:41:04;6.60;73.00
20066;DHT22;10193;48.884;9.182;2024-01-07T08:43:32;6.60;72.90
20066;DHT22;10193;48.884;9.182;2024-01-07T08:45:59;6.60;72.90
20066;DHT22;10193;48.884;9.182;2024-01-07T08:48:26;6.60;72.70
20066;DHT22;10193;48.884;9.182;2024-01-07T08:50:52;6.60;72.40
20066;DHT22;10193;48.884;9.182;2024-01-07T08:53:19;6.60;72.50
20066;DHT22;10193;48.884;9.182;2024-01-07T08:55:47;6.60;72.40
20066;DHT22;10193;48.884;9.182;2024-01-07T08:58:15;6.60;72.40
20066;DHT22;10193;48.884;9.182;2024-01-07T09:00:44;6.50;72.20
20066;DHT22;10193;48.884;9.182;2024-01-07T09:03:10;6.50;71.90
20066;DHT22;10193;48.884;9.182;2024-01-07T09:05:37;6.50;71.90
20066;DHT22;10193;48.884;9.182;2024-01-07T09:08:04;6.50;72.10
20066;DHT22;10193;48.884;9.182;2024-01-07T09:10:32;6.50;72.10
20066;DHT22;10193;48.884;9.182;2024-01-07T09:12:59;6.50;72.10
20066;DHT22;10193;48.884;9.182;2024-01-07T09:15:26;6.50;72.30
20066;DHT22;10193;48.884;9.182;2024-01-07T09:17:54;6.50;72.30
20066;DHT22;10193;48.884;9.182;2024-01-07T09:20:20;6.50;73.10
20066;DHT22;10193;48.884;9.182;2024-01-07T09:22:47;6.50;72.30
20066;DHT22;10193;48.884;9.182;2024-01-07T09:25:14;6.50;72.30
20066;DHT22;10193;48.884;9.182;2024-01-07T09:27:40;6.50;72.20
20066;DHT22;10193;48.884;9.182;2024-01-07T09:30:09;6.50;72.10
20066;DHT22;10193;48.884;9.182;2024-01-07T09:32:39;6.50;72.10
20066;DHT22;10193;48.884;9.182;2024-01-07T09:35:08;6.60;72.10
20066;DHT22;10193;48.884;9.182;2024-01-07T09:37:35;6.50;71.70
20066;DHT22;10193;48.884;9.182;2024-01-07T09:40:02;6.50;71.90
20066;DHT22;10193;48.884;9.182;2024-01-07T09:42:30;6.50;71.90
20066;DHT22;10193;48.884;9.182;2024-01-07T09:44:59;6.50;71.80
20066;DHT22;10193;48.884;9.182;2024-01-07T09:47:27;6.50;71.90
20066;DHT22;10193;48.884;9.182;2024-01-07T09:49:54;6.50;71.90
20066;DHT22;10193;48.884;9.182;2024-01-07T09:52:22;6.50;71.80
20066;DHT22;10193;48.884;9.182;2024-01-07T09:54:51;6.50;71.60
20066;DHT22;10193;48.884;9.182;2024-01-07T09:57:18;6.50;71.70
20066;DHT22;10193;48.884;9.182;2024-01-07T09:59:45;6.40;71.40
20066;DHT22;10193;48.884;9.182;2024-01-07T10:02:12;6.40;71.40
20066;DHT22;10193;48.884;9.182;2024-01-07T10:04:40;6.40;71.40
20066;DHT22;10193;48.884;9.182;2024-01-07T10:07:06;6.40;71.60
20066;DHT22;10193;48.884;9.182;2024-01-07T10:09:34;6.40;71.40
20066;DHT22;10193;48.884;9.182;2024-01-07T10:12:01;6.40;71.20
20066;DHT22;10193;48.884;9.182;2024-01-07T10:14:29;6.40;71.10
20066;DHT22;10193;48.884;9.182;2024-01-07T10:16:56;6.30;70.50
20066;DHT22;10193;48.884;9.182;2024-01-07T10:19:24;6.30;70.40
20066;DHT22;10193;48.884;9.182;2024-01-07T10:22:00;6.30;70.80
20066;DHT22;10193;48.884;9.182;2024-01-07T10:24:37;6.30;70.70
20066;DHT22;10193;48.884;9.182;2024-01-07T10:27:05;6.30;70.40
20066;DHT22;10193;48.884;9.182;2024-01-07T10:29:32;6.20;70.70
20066;DHT22;10193;48.884;9.182;2024-01-07T10:31:59;6.30;70.80
20066;DHT22;10193;48.884;9.182;2024-01-07T10:34:29;6.30;70.50
20066;DHT22;10193;48.884;9.182;2024-01-07T10:36:59;6.20;70.50
20066;DHT22;10193;48.884;9.182;2024-01-07T10:39:26;6.30;70.70
20066;DHT22;10193;48.884;9.182;2024-01-07T10:41:54;6.30;70.70
20066;DHT22;10193;48.884;9.182;2024-01-07T10:44:25;6.30;70.60
20066;DHT22;10193;48.884;9.182;2024-01-07T10:46:53;6.30;70.60
20066;DHT22;10193;48.884;9.182;2024-01-07T10:49:21;6.30;70.40
20066;DHT22;10193;48.884;9.182;2024-01-07T10:51:56;6.30;70.60
20066;DHT22;10193;48.884;9.182;2024-01-07T10:54:28;6.30;70.30
20066;DHT22;10193;48.884;9.182;2024-01-07T10:56:59;6.40;70.40
20066;DHT22;10193;48.884;9.182;2024-01-07T10:59:26;6.40;70.10
20066;DHT22;10193;48.884;9.182;2024-01-07T11:01:53;6.30;70.20
20066;DHT22;10193;48.884;9.182;2024-01-07T11:04:23;6.30;70.10
20066;DHT22;10193;48.884;9.182;2024-01-07T11:07:00;6.40;70.20
20066;DHT22;10193;48.884;9.182;2024-01-07T11:09:35;6.40;70.00
20066;DHT22;10193;48.884;9.182;2024-01-07T11:12:04;6.40;69.80
20066;DHT22;10193;48.884;9.182;2024-01-07T11:14:36;6.30;69.80
20066;DHT22;10193;48.884;9.182;2024-01-07T11:17:02;6.30;69.70
20066;DHT22;10193;48.884;9.182;2024-01-07T11:19:29;6.30;69.50
20066;DHT22;10193;48.884;9.182;2024-01-07T11:22:20;6.10;69.50
20066;DHT22;10193;48.884;9.182;2024-01-07T11:24:48;6.30;69.20
20066;DHT22;10193;48.884;9.182;2024-01-07T11:27:17;6.20;69.60
20066;DHT22;10193;48.884;9.182;2024-01-07T11:29:43;6.20;69.60
20066;DHT22;10193;48.884;9.182;2024-01-07T11:32:13;6.20;69.50
20066;DHT22;10193;48.884;9.182;2024-01-07T11:34:40;6.20;69.40
20066;DHT22;10193;48.884;9.182;2024-01-07T11:37:10;6.20;69.30
20066;DHT22;10193;48.884;9.182;2024-01-07T11:39:38;6.20;69.20
20066;DHT22;10193;48.884;9.182;2024-01-07T11:42:05;6.10;69.10
20066;DHT22;10193;48.884;9.182;2024-01-07T11:44:35;6.10;68.60
20066;DHT22;10193;48.884;9.182;2024-01-07T11:47:03;6.10;69.10
20066;DHT22;10193;48.884;9.182;2024-01-07T11:49:31;6.10;69.20
20066;DHT22;10193;48.884;9.182;2024-01-07T11:51:58;6.00;68.90
20066;DHT22;10193;48.884;9.182;2024-01-07T11:54:25;6.00;69.00
20066;DHT22;10193;48.884;9.182;2024-01-07T11:56:52;6.00;69.00
20066;DHT22;10193;48.884;9.182;2024-01-07T11:59:18;6.00;68.50
20066;DHT22;10193;48.884;9.182;2024-01-07T12:01:46;5.90;68.10
20066;DHT22;10193;48.884;9.182;2024-01-07T12:04:13;5.80;68.40
20066;DHT22;10193;48.884;9.182;2024-01-07T12:06:40;5.80;68.40
20066;DHT22;10193;48.884;9.182;2024-01-07T12:09:07;5.80;68.40
20066;DHT22;10193;48.884;9.182;2024-01-07T12:11:34;5.70;68.40
20066;DHT22;10193;48.884;9.182;2024-01-07T12:14:01;5.70;68.20
20066;DHT22;10193;48.884;9.182;2024-01-07T12:16:29;5.60;68.40
20066;DHT22;10193;48.884;9.182;2024-01-07T12:18:57;5.60;68.60
20066;DHT22;10193;48.884;9.182;2024-01-07T12:21:24;5.60;68.70
20066;DHT22;10193;48.884;9.182;2024-01-07T12:23:53;5.50;68.70
20066;DHT22;10193;48.884;9.182;2024-01-07T12:26:20;5.50;68.70
20066;DHT22;10193;48.884;9.182;2024-01-07T12:28:52;5.50;68.80
20066;DHT22;10193;48.884;9.182;2024-01-07T12:31:19;5.40;68.60
20066;DHT22;10193;48.884;9.182;2024-01-07T12:33:46;5.40;68.60
20066;DHT22;10193;48.884;9.182;2024-01-07T12:36:14;5.40;68.40
20066;DHT22;10193;48.884;9.182;2024-01-07T12:38:41;5.30;68.70
20066;DHT22;10193;48.884;9.182;2024-01-07T12:41:08;5.30;68.70
20066;DHT22;10193;48.884;9.182;2024-01-07T12:43:36;5.30;68.70
20066;DHT22;10193;48.884;9.182;2024-01-07T12:46:03;5.30;68.70
20066;DHT22;10193;48.884;9.182;2024-01-07T12:48:30;5.30;68.90
20066;DHT22;10193;48.884;9.182;2024-01-07T12:50:57;5.20;68.70
20066;DHT22;10193;48.884;9.182;2024-01-07T12:53:25;5.20;68.60
20066;DHT22;10193;48.884;9.182;2024-01-07T12:55:53;5.20;68.90
20066;DHT22;10193;48.884;9.182;2024-01-07T12:58:19;5.20;68.80
20066;DHT22;10193;48.884;9.182;2024-01-07T13:00:46;5.20;68.50
20066;DHT22;10193;48.884;9.182;2024-01-07T13:03:13;5.20;68.50
20066;DHT22;10193;48.884;9.182;2024-01-07T13:05:43;5.10;68.40
20066;DHT22;10193;48.884;9.182;2024-01-07T13:08:11;5.10;68.40
20066;DHT22;10193;48.884;9.182;2024-01-07T13:10:39;5.00;68.30
20066;DHT22;10193;48.884;9.182;2024-01-07T13:13:06;5.00;68.40
20066;DHT22;10193;48.884;9.182;2024-01-07T13:15:35;5.00;68.30
20066;DHT22;10193;48.884;9.182;2024-01-07T13:18:02;4.90;68.30
20066;DHT22;10193;48.884;9.182;2024-01-07T13:20:28;4.90;68.40
20066;DHT22;10193;48.884;9.182;2024-01-07T13:22:55;4.90;68.30
20066;DHT22;10193;48.884;9.182;2024-01-07T13:25:22;4.90;68.40
20066;DHT22;10193;48.884;9.182;2024-01-07T13:27:50;4.90;68.40
20066;DHT22;10193;48.884;9.182;2024-01-07T13:30:17;4.90;68.00
20066;DHT22;10193;48.884;9.182;2024-01-07T13:32:44;4.80;68.10
20066;DHT22;10193;48.884;9.182;2024-01-07T13:35:11;4.80;68.10
20066;DHT22;10193;48.884;9.182;2024-01-07T13:37:38;4.80;68.10
20066;DHT22;10193;48.884;9.182;2024-01-07T13:40:08;4.80;68.10
20066;DHT22;10193;48.884;9.182;2024-01-07T13:42:35;4.80;68.20
20066;DHT22;10193;48.884;9.182;2024-01-07T13:45:04;4.70;68.10
20066;DHT22;10193;48.884;9.182;2024-01-07T13:47:31;4.70;68.20
20066;DHT22;10193;48.884;9.182;2024-01-07T13:49:58;4.70;68.20
20066;DHT22;10193;48.884;9.182;2024-01-07T13:52:24;4.70;68.30
20066;DHT22;10193;48.884;9.182;2024-01-07T13:54:51;4.70;68.20
20066;DHT22;10193;48.884;9.182;2024-01-07T13:57:18;4.70;68.20
20066;DHT22;10193;48.884;9.182;2024-01-07T13:59:44;4.70;68.20
20066;DHT22;10193;48.884;9.182;2024-01-07T14:02:12;4.70;68.20
20066;DHT22;10193;48.884;9.182;2024-01-07T14:04:39;4.70;68.20
20066;DHT22;10193;48.884;9.182;2024-01-07T14:07:06;4.70;68.20
20066;DHT22;10193;48.884;9.182;2024-01-07T14:09:32;4.60;68.00
20066;DHT22;10193;48.884;9.182;2024-01-07T14:11:59;4.60;68.00
20066;DHT22;10193;48.884;9.182;2024-01-07T14:14:26;4.60;68.00
20066;DHT22;10193;48.884;9.182;2024-01-07T14:16:52;4.60;68.10
20066;DHT22;10193;48.884;9.182;2024-01-07T14:19:20;4.60;68.10
20066;DHT22;10193;48.884;9.182;2024-01-07T14:21:47;4.50;68.00
20066;DHT22;10193;48.884;9.182;2024-01-07T14:24:14;4.50;68.00
20066;DHT22;10193;48.884;9.182;2024-01-07T14:26:41;4.50;68.00
20066;DHT22;10193;48.884;9.182;2024-01-07T14:29:07;4.50;68.10
20066;DHT22;10193;48.884;9.182;2024-01-07T14:31:34;4.50;68.00
20066;DHT22;10193;48.884;9.182;2024-01-07T14:34:01;4.50;68.10
20066;DHT22;10193;48.884;9.182;2024-01-07T14:36:29;4.40;67.90
20066;DHT22;10193;48.884;9.182;2024-01-07T14:38:56;4.40;67.90
20066;DHT22;10193;48.884;9.182;2024-01-07T14:41:22;4.40;68.00
20066;DHT22;10193;48.884;9.182;2024-01-07T14:43:49;4.40;67.90
20066;DHT22;10193;48.884;9.182;2024-01-07T14:46:16;4.40;68.00
20066;DHT22;10193;48.884;9.182;2024-01-07T14:48:42;4.30;68.00
20066;DHT22;10193;48.884;9.182;2024-01-07T14:51:09;4.30;68.00
20066;DHT22;10193;48.884;9.182;2024-01-07T14:53:38;4.30;67.80
20066;DHT22;10193;48.884;9.182;2024-01-07T14:56:04;4.30;67.80
20066;DHT22;10193;48.884;9.182;2024-01-07T14:58:31;4.30;67.80
20066;DHT22;10193;48.884;9.182;2024-01-07T15:00:58;4.20;67.70
20066;DHT22;10193;48.884;9.182;2024-01-07T15:03:25;4.20;67.60
20066;DHT22;10193;48.884;9.182;2024-01-07T15:05:51;4.20;67.50
20066;DHT22;10193;48.884;9.182;2024-01-07T15:08:18;4.20;67.50
20066;DHT22;10193;48.884;9.182;2024-01-07T15:10:46;4.10;67.60
20066;DHT22;10193;48.884;9.182;2024-01-07T15:13:13;4.10;67.60
20066;DHT22;10193;48.884;9.182;2024-01-07T15:15:39;4.10;67.80
20066;DHT22;10193;48.884;9.182;2024-01-07T15:18:06;4.10;67.50
20066;DHT22;10193;48.884;9.182;2024-01-07T15:20:33;4.10;67.50
20066;DHT22;10193;48.884;9.182;2024-01-07T15:23:00;4.00;67.50
20066;DHT22;10193;48.884;9.182;2024-01-07T15:25:28;4.00;67.40
20066;DHT22;10193;48.884;9.182;2024-01-07T15:27:56;4.00;67.40
20066;DHT22;10193;48.884;9.182;2024-01-07T15:30:22;4.00;67.40
20066;DHT22;10193;48.884;9.182;2024-01-07T15:32:49;3.90;67.30
20066;DHT22;10193;48.884;9.182;2024-01-07T15:35:16;3.90;67.40
20066;DHT22;10193;48.884;9.182;2024-01-07T15:37:43;3.90;67.40
20066;DHT22;10193;48.884;9.182;2024-01-07T15:40:10;3.80;67.30
20066;DHT22;10193;48.884;9.182;2024-01-07T15:42:38;3.80;67.30
20066;DHT22;10193;48.884;9.182;2024-01-07T15:45:06;3.80;67.50